Time;durP1;ratioP1;P1;durP2;ratioP2;P2;SDS_P1;SDS_P2;PMS_P1;PMS_P2;Temp;Humidity;BMP_temperature;BMP_pressure;BME280_temperature;BME280_humidity;BME280_pressure;Samples;Min_cycle;Max_cycle;Signal;HPM_P1;HPM_P2
2023/01/22 00:01:08;;;;;;;91.25;46.30;;;;;;;6.25;100.00;99321.81;5019510;28;20026;-70
2023/01/22 00:03:37;;;;;;;93.28;47.05;;;;;;;6.07;100.00;99343.03;5032399;28;20415;-70
2023/01/22 00:06:03;;;;;;;86.60;47.08;;;;;;;6.06;100.00;99341.38;5033727;28;20507;-70
2023/01/22 00:08:28;;;;;;;90.55;48.90;;;;;;;6.26;100.00;99342.91;5033927;28;20034;-70
2023/01/22 00:10:54;;;;;;;87.50;46.13;;;;;;;6.41;100.00;99336.22;5033713;28;20072;-70
2023/01/22 00:13:22;;;;;;;92.50;49.47;;;;;;;6.46;100.00;99348.06;5034006;28;20036;-70
2023/01/22 00:15:48;;;;;;;91.38;49.83;;;;;;;6.35;100.00;99366.06;5033604;28;20097;-70
2023/01/22 00:18:14;;;;;;;86.22;46.13;;;;;;;6.55;100.00;99364.81;5028457;28;20030;-70
2023/01/22 00:20:40;;;;;;;87.30;46.28;;;;;;;6.64;100.00;99366.88;5032445;28;20033;-70
2023/01/22 00:23:06;;;;;;;84.97;46.17;;;;;;;6.67;100.00;99363.47;5033277;28;20030;-70
2023/01/22 00:25:32;;;;;;;86.95;48.00;;;;;;;6.76;100.00;99371.88;5031617;28;20518;-70
2023/01/22 00:27:57;;;;;;;86.13;46.88;;;;;;;6.63;100.00;99360.47;5012611;28;20022;-70
2023/01/22 00:30:22;;;;;;;75.38;43.08;;;;;;;6.60;100.00;99361.91;5013724;28;20110;-70
2023/01/22 00:32:48;;;;;;;87.65;45.70;;;;;;;6.71;100.00;99378.38;5021368;28;20151;-70
2023/01/22 00:35:14;;;;;;;83.32;46.60;;;;;;;6.72;100.00;99380.84;5031916;28;20112;-70
2023/01/22 00:37:39;;;;;;;85.25;46.08;;;;;;;6.85;100.00;99381.13;5017901;28;20033;-70
2023/01/22 00:40:05;;;;;;;91.97;49.78;;;;;;;6.77;99.39;99379.91;5013536;28;20477;-70
2023/01/22 00:42:31;;;;;;;80.40;43.72;;;;;;;6.42;99.68;99385.09;5013648;28;20028;-70
2023/01/22 00:44:58;;;;;;;88.28;44.08;;;;;;;6.28;100.00;99394.25;5012142;28;20028;-70
2023/01/22 00:47:24;;;;;;;84.40;46.03;;;;;;;6.48;100.00;99396.94;5012304;28;20100;-70
2023/01/22 00:49:49;;;;;;;81.78;44.85;;;;;;;6.54;100.00;99392.91;5013803;28;20038;-70
2023/01/22 00:52:15;;;;;;;88.28;46.88;;;;;;;6.42;100.00;99404.56;5015892;28;20028;-70
2023/01/22 00:54:40;;;;;;;87.15;51.40;;;;;;;6.50;100.00;99403.00;5033196;28;20029;-70
2023/01/22 00:57:06;;;;;;;90.55;49.47;;;;;;;6.44;100.00;99397.53;5033320;28;20029;-70
2023/01/22 00:59:31;;;;;;;86.28;47.55;;;;;;;6.49;100.00;99415.25;5033026;28;20030;-70
2023/01/22 01:01:56;;;;;;;79.40;43.40;;;;;;;6.31;100.00;99415.03;5025858;28;20554;-70
2023/01/22 01:04:22;;;;;;;81.90;46.20;;;;;;;6.19;100.00;99435.00;5029598;28;20080;-70
2023/01/22 01:06:47;;;;;;;83.97;46.50;;;;;;;5.93;100.00;99427.09;5013292;28;20022;-70
2023/01/22 01:09:13;;;;;;;81.55;44.40;;;;;;;6.03;100.00;99435.28;5011724;28;20026;-70
2023/01/22 01:11:39;;;;;;;90.35;49.38;;;;;;;6.10;100.00;99442.38;5013197;28;20152;-70
2023/01/22 01:14:04;;;;;;;88.50;49.60;;;;;;;6.31;100.00;99440.03;5012999;28;20026;-70
2023/01/22 01:16:31;;;;;;;92.18;48.70;;;;;;;6.22;100.00;99451.03;5012884;28;20476;-70
2023/01/22 01:19:04;;;;;;;87.57;48.88;;;;;;;6.37;100.00;99446.31;5014857;28;20032;-70
2023/01/22 01:21:30;;;;;;;83.28;47.55;;;;;;;6.32;100.00;99458.34;5014698;28;20080;-70
2023/01/22 01:23:56;;;;;;;84.38;45.33;;;;;;;6.43;100.00;99440.34;5012848;28;20029;-70
2023/01/22 01:26:22;;;;;;;82.13;43.95;;;;;;;6.50;99.71;99455.81;5012894;28;20032;-70
2023/01/22 01:28:51;;;;;;;81.20;46.13;;;;;;;6.52;99.20;99454.38;5021813;28;20021;-70
2023/01/22 01:31:18;;;;;;;90.15;49.67;;;;;;;6.60;99.12;99459.19;5032508;28;20029;-70
2023/01/22 01:33:44;;;;;;;91.45;47.95;;;;;;;6.56;99.37;99460.94;5029069;28;20033;-70
2023/01/22 01:36:13;;;;;;;93.85;49.75;;;;;;;6.44;99.78;99471.75;5032381;28;20025;-70
2023/01/22 01:38:38;;;;;;;85.22;45.72;;;;;;;6.59;99.85;99470.63;5032310;28;20104;-70
2023/01/22 01:41:05;;;;;;;99.30;51.08;;;;;;;6.23;100.00;99452.69;5031924;28;20061;-69
2023/01/22 01:43:31;;;;;;;97.93;51.70;;;;;;;6.14;100.00;99443.41;5031034;28;20060;-69
2023/01/22 01:45:59;;;;;;;102.45;51.40;;;;;;;5.99;100.00;99450.84;5031863;28;20033;-69
2023/01/22 01:48:33;;;;;;;96.05;51.72;;;;;;;6.16;100.00;99461.41;5029884;28;20393;-69
2023/01/22 01:51:02;;;;;;;97.45;52.33;;;;;;;6.30;100.00;99450.34;5010890;28;20048;-69
2023/01/22 01:53:28;;;;;;;99.82;53.28;;;;;;;6.06;100.00;99438.56;5012373;28;20032;-69
2023/01/22 01:55:55;;;;;;;90.13;50.78;;;;;;;6.12;100.00;99431.78;5012228;28;20449;-69
2023/01/22 01:58:25;;;;;;;100.95;52.30;;;;;;;5.87;100.00;99440.25;5012241;28;20113;-69
2023/01/22 02:00:54;;;;;;;103.00;55.27;;;;;;;5.97;100.00;99411.47;5014820;28;20032;-69
2023/01/22 02:03:20;;;;;;;97.40;52.33;;;;;;;5.81;100.00;99401.78;5023942;28;20036;-69
2023/01/22 02:05:46;;;;;;;90.22;49.70;;;;;;;5.90;100.00;99417.41;5019960;28;20033;-69
2023/01/22 02:08:12;;;;;;;87.57;47.60;;;;;;;6.15;100.00;99445.88;5030526;28;20547;-69
2023/01/22 02:10:38;;;;;;;95.43;48.97;;;;;;;6.28;100.00;99443.44;5028624;28;20064;-69
2023/01/22 02:13:11;;;;;;;94.00;51.78;;;;;;;6.32;100.00;99445.28;5030432;28;20112;-69
2023/01/22 02:15:38;;;;;;;99.07;52.83;;;;;;;6.32;100.00;99436.94;5031179;28;20492;-69
2023/01/22 02:18:04;;;;;;;98.50;50.67;;;;;;;6.40;100.00;99440.16;5030392;28;20427;-69
2023/01/22 02:20:35;;;;;;;101.13;52.65;;;;;;;5.78;100.00;99436.50;5030672;28;20026;-69
2023/01/22 02:23:00;;;;;;;105.75;55.72;;;;;;;6.08;100.00;99436.31;5031517;28;20087;-69
2023/01/22 02:25:26;;;;;;;92.72;49.97;;;;;;;6.21;100.00;99434.66;5031624;28;20025;-69
2023/01/22 02:27:51;;;;;;;100.15;53.88;;;;;;;6.07;100.00;99448.53;5031567;28;20053;-69
2023/01/22 02:30:17;;;;;;;100.07;51.83;;;;;;;6.18;100.00;99452.78;5031295;28;20455;-69
2023/01/22 02:32:42;;;;;;;96.85;53.92;;;;;;;6.33;100.00;99451.66;5030779;28;20033;-69
2023/01/22 02:35:08;;;;;;;100.03;51.13;;;;;;;6.29;100.00;99442.28;5031243;28;20029;-69
2023/01/22 02:37:34;;;;;;;92.03;49.38;;;;;;;6.12;100.00;99451.22;5031311;28;20079;-69
2023/01/22 02:39:59;;;;;;;89.28;49.28;;;;;;;6.29;100.00;99437.56;5031439;28;20037;-69
2023/01/22 02:42:26;;;;;;;86.93;50.17;;;;;;;6.37;100.00;99449.09;5029328;28;21330;-69
2023/01/22 02:44:52;;;;;;;95.53;51.05;;;;;;;6.37;100.00;99449.09;5026712;28;20423;-69
2023/01/22 02:47:18;;;;;;;129.88;61.78;;;;;;;6.40;100.00;99451.28;5011616;28;20033;-69
2023/01/22 02:49:43;;;;;;;121.85;61.83;;;;;;;6.43;100.00;99459.00;5011801;28;20034;-69
2023/01/22 02:52:09;;;;;;;99.85;52.70;;;;;;;6.36;100.00;99461.34;5020380;28;20033;-69
2023/01/22 02:54:34;;;;;;;113.30;55.60;;;;;;;6.26;99.91;99463.16;5031247;28;20025;-69
2023/01/22 02:57:00;;;;;;;99.10;54.40;;;;;;;6.21;100.00;99465.22;5031053;28;20175;-69
2023/01/22 02:59:25;;;;;;;105.50;53.50;;;;;;;6.19;100.00;99454.44;5033292;28;20036;-69
2023/01/22 03:01:51;;;;;;;106.55;56.75;;;;;;;6.15;100.00;99467.25;5034880;28;20116;-69
2023/01/22 03:04:16;;;;;;;103.55;55.13;;;;;;;6.17;100.00;99465.03;5033765;28;20033;-69
2023/01/22 03:06:44;;;;;;;96.10;51.90;;;;;;;6.24;99.98;99470.97;5035189;28;20026;-69
2023/01/22 03:09:12;;;;;;;99.97;55.40;;;;;;;6.31;99.62;99470.59;5035110;28;20484;-69
2023/01/22 03:11:39;;;;;;;105.75;55.33;;;;;;;6.16;99.49;99461.41;5035068;28;20408;-69
2023/01/22 03:22:17;;;;;;;99.03;50.10;;;;;;;6.17;99.32;99463.06;5034964;28;20037;-69
2023/01/22 03:24:43;;;;;;;95.22;51.28;;;;;;;6.03;99.61;99463.03;5034813;28;20025;-69
2023/01/22 03:27:09;;;;;;;91.15;47.92;;;;;;;5.86;100.00;99460.81;5034857;28;20056;-69
2023/01/22 03:29:38;;;;;;;91.57;49.45;;;;;;;6.01;100.00;99470.84;5034679;28;20029;-69
2023/01/22 03:32:06;;;;;;;94.18;51.50;;;;;;;6.09;99.76;99476.81;5031376;28;20041;-69
2023/01/22 03:34:33;;;;;;;93.00;51.30;;;;;;;5.85;99.72;99474.97;5015615;28;20485;-69
2023/01/22 03:36:58;;;;;;;97.28;50.28;;;;;;;5.84;100.00;99476.91;5014752;28;20057;-69
2023/01/22 03:39:25;;;;;;;99.35;53.85;;;;;;;5.97;100.00;99488.38;5013463;28;20056;-69
2023/01/22 03:41:51;;;;;;;105.50;54.88;;;;;;;5.83;100.00;99488.34;5014932;28;20025;-69
2023/01/22 03:44:16;;;;;;;93.95;51.22;;;;;;;5.84;100.00;99479.69;5029102;28;20452;-69
2023/01/22 03:46:42;;;;;;;95.65;53.28;;;;;;;5.83;100.00;99478.03;5034168;28;20029;-69
2023/01/22 03:49:08;;;;;;;98.32;55.08;;;;;;;5.60;100.00;99483.41;5033767;28;20136;-69
2023/01/22 03:51:34;;;;;;;97.55;54.60;;;;;;;5.82;100.00;99486.69;5032202;28;20407;-69
2023/01/22 03:54:00;;;;;;;92.50;52.33;;;;;;;5.94;100.00;99484.28;5034391;28;20100;-69
2023/01/22 03:56:26;;;;;;;94.22;50.25;;;;;;;5.99;100.00;99492.50;5034216;28;20029;-69
2023/01/22 03:58:52;;;;;;;87.80;50.03;;;;;;;5.66;100.00;99495.25;5034385;28;20104;-69
2023/01/22 04:01:21;;;;;;;86.03;47.80;;;;;;;5.41;100.00;99502.84;5034265;28;20391;-69
2023/01/22 04:03:46;;;;;;;86.63;47.50;;;;;;;5.22;100.00;99502.00;5019348;28;20025;-69
2023/01/22 04:06:12;;;;;;;86.85;48.03;;;;;;;5.37;100.00;99507.34;5017627;28;20172;-69
2023/01/22 04:08:40;;;;;;;83.43;47.42;;;;;;;5.47;100.00;99498.03;5012858;28;20025;-69
2023/01/22 04:11:06;;;;;;;91.00;48.53;;;;;;;5.47;100.00;99509.97;5014171;28;20088;-69
2023/01/22 04:13:33;;;;;;;82.05;48.78;;;;;;;5.55;100.00;99505.69;5014138;28;20131;-69
2023/01/22 04:15:59;;;;;;;89.15;45.63;;;;;;;5.55;100.00;99507.63;5028430;28;20050;-69
2023/01/22 04:18:24;;;;;;;82.05;46.28;;;;;;;5.70;100.00;99518.50;5033922;28;20143;-69
2023/01/22 04:20:51;;;;;;;79.15;43.70;;;;;;;5.91;100.00;99529.28;5033567;28;20415;-69
2023/01/22 04:23:17;;;;;;;84.35;46.42;;;;;;;5.95;100.00;99530.34;5033947;28;20064;-69
2023/01/22 04:25:43;;;;;;;82.82;48.45;;;;;;;5.99;100.00;99528.59;5033768;28;20053;-69
2023/01/22 04:28:13;;;;;;;95.82;51.30;;;;;;;5.90;100.00;99527.63;5033722;28;20021;-69
2023/01/22 04:30:39;;;;;;;93.90;48.40;;;;;;;5.84;100.00;99534.41;5033312;28;20415;-69
2023/01/22 04:33:05;;;;;;;92.20;48.53;;;;;;;5.66;100.00;99539.66;5033210;28;21013;-69
2023/01/22 04:35:31;;;;;;;101.78;54.60;;;;;;;5.72;100.00;99552.34;5033408;28;20032;-69
2023/01/22 04:37:57;;;;;;;106.90;54.30;;;;;;;5.54;100.00;99548.44;5033682;28;20025;-69
2023/01/22 04:40:23;;;;;;;101.50;51.95;;;;;;;5.69;100.00;99547.41;5033620;28;20090;-69
2023/01/22 04:42:49;;;;;;;111.22;53.92;;;;;;;5.67;100.00;99560.75;5032087;28;20487;-69
2023/01/22 04:45:14;;;;;;;103.47;54.28;;;;;;;5.57;100.00;99558.13;5032737;28;20056;-69
2023/01/22 04:47:44;;;;;;;108.72;56.05;;;;;;;5.63;100.00;99556.91;5032082;28;20389;-69
2023/01/22 04:50:21;;;;;;;99.15;54.83;;;;;;;5.78;100.00;99561.41;5033336;28;20104;-69
2023/01/22 04:52:49;;;;;;;109.82;53.92;;;;;;;5.88;100.00;99568.75;5032601;28;20029;-69
2023/01/22 04:55:15;;;;;;;123.22;63.30;;;;;;;5.94;100.00;99581.44;5013547;28;20041;-69
2023/01/22 04:57:40;;;;;;;100.05;55.45;;;;;;;5.96;100.00;99565.31;5013216;28;20030;-69
2023/01/22 05:00:07;;;;;;;97.55;50.55;;;;;;;6.08;100.00;99584.28;5016954;28;20080;-69
2023/01/22 05:02:32;;;;;;;97.43;53.00;;;;;;;5.85;100.00;99572.13;5013253;28;20570;-69
2023/01/22 05:04:58;;;;;;;99.18;53.97;;;;;;;5.92;100.00;99580.94;5013304;28;20026;-69
2023/01/22 05:07:23;;;;;;;101.15;54.00;;;;;;;6.12;100.00;99590.06;5013222;28;20029;-69
2023/01/22 05:09:49;;;;;;;109.57;57.45;;;;;;;6.07;100.00;99587.41;5013008;28;20022;-69
2023/01/22 05:12:14;;;;;;;128.80;78.88;;;;;;;6.26;100.00;99592.91;5011823;28;20022;-69
2023/01/22 05:14:40;;;;;;;102.55;56.60;;;;;;;6.39;100.00;99588.53;5013025;28;20025;-69
2023/01/22 05:17:06;;;;;;;94.95;50.42;;;;;;;6.45;100.00;99585.34;5012288;28;20038;-69
2023/01/22 05:19:34;;;;;;;86.32;48.53;;;;;;;6.35;100.00;99582.78;5012901;28;20024;-69
2023/01/22 05:21:59;;;;;;;87.18;46.35;;;;;;;6.31;100.00;99593.66;5012343;28;20033;-69
2023/01/22 05:24:25;;;;;;;89.97;49.78;;;;;;;6.32;100.00;99600.03;5011479;28;20026;-69
2023/01/22 05:26:50;;;;;;;87.18;46.15;;;;;;;6.43;100.00;99604.28;5011704;28;20030;-69
2023/01/22 05:29:16;;;;;;;84.03;46.08;;;;;;;6.48;100.00;99597.81;5012623;28;20025;-69
2023/01/22 05:31:41;;;;;;;95.00;49.15;;;;;;;6.55;100.00;99602.97;5013893;28;20064;-69
2023/01/22 05:34:07;;;;;;;100.47;52.47;;;;;;;6.54;100.00;99610.50;5032455;28;20017;-69
2023/01/22 05:36:32;;;;;;;91.70;49.75;;;;;;;6.64;100.00;99611.47;5032493;28;20389;-69
2023/01/22 05:38:58;;;;;;;91.20;54.03;;;;;;;6.58;100.00;99602.38;5032369;28;20025;-69
2023/01/22 05:41:24;;;;;;;99.53;53.97;;;;;;;6.65;100.00;99624.22;5032272;28;20108;-69
2023/01/22 05:43:49;;;;;;;85.03;49.75;;;;;;;6.41;100.00;99631.56;5032238;28;20029;-69
2023/01/22 05:46:15;;;;;;;85.53;45.70;;;;;;;6.17;100.00;99632.47;5030976;28;20021;-69
2023/01/22 05:48:40;;;;;;;83.55;45.05;;;;;;;6.30;100.00;99633.69;5028345;28;20084;-69
2023/01/22 05:51:09;;;;;;;89.53;47.00;;;;;;;6.36;100.00;99642.75;5032230;28;20030;-69
2023/01/22 05:53:35;;;;;;;85.03;50.25;;;;;;;6.41;100.00;99639.88;5022749;28;20104;-69
2023/01/22 05:56:02;;;;;;;92.82;51.95;;;;;;;6.32;100.00;99645.31;5011002;28;20113;-69
2023/01/22 05:58:28;;;;;;;84.25;45.15;;;;;;;6.29;100.00;99637.59;5010953;28;20022;-69
2023/01/22 06:00:54;;;;;;;82.88;44.65;;;;;;;6.44;100.00;99647.63;5012666;28;20021;-69
2023/01/22 06:03:20;;;;;;;92.80;54.83;;;;;;;6.51;100.00;99652.78;5010891;28;20412;-69
2023/01/22 06:05:45;;;;;;;86.95;46.88;;;;;;;6.23;100.00;99640.75;5012288;28;20045;-69
2023/01/22 06:08:11;;;;;;;87.20;47.15;;;;;;;6.36;100.00;99653.03;5021188;28;20025;-69
2023/01/22 06:10:36;;;;;;;94.05;51.20;;;;;;;6.47;100.00;99662.88;5030126;28;20021;-69
2023/01/22 06:13:02;;;;;;;77.97;44.95;;;;;;;6.50;100.00;99669.78;5010909;28;20022;-69
2023/01/22 06:15:27;;;;;;;84.50;46.45;;;;;;;6.51;100.00;99663.91;5018074;28;20116;-69
2023/01/22 06:17:53;;;;;;;83.03;45.90;;;;;;;6.53;100.00;99683.06;5030490;28;20384;-69
2023/01/22 06:20:18;;;;;;;94.20;51.42;;;;;;;6.42;100.00;99676.84;5031664;28;20400;-69
2023/01/22 06:22:44;;;;;;;99.15;54.05;;;;;;;6.34;100.00;99688.63;5019520;28;20037;-69
2023/01/22 06:25:09;;;;;;;90.20;50.17;;;;;;;6.09;100.00;99693.44;5015679;28;20064;-69
2023/01/22 06:27:34;;;;;;;91.50;50.13;;;;;;;6.27;100.00;99700.13;5025022;28;20407;-69
2023/01/22 06:30:00;;;;;;;102.43;57.67;;;;;;;5.98;100.00;99701.06;5015000;28;20030;-69
2023/01/22 06:32:26;;;;;;;97.03;52.80;;;;;;;6.02;100.00;99711.28;5025517;28;20027;-69
2023/01/22 06:34:51;;;;;;;105.30;54.08;;;;;;;6.20;100.00;99708.00;5024371;28;20487;-70
2023/01/22 06:37:17;;;;;;;104.65;57.65;;;;;;;6.00;100.00;99698.81;5017208;28;20026;-68
2023/01/22 06:39:42;;;;;;;107.32;58.60;;;;;;;5.89;100.00;99709.22;5018119;28;20026;-70
2023/01/22 06:42:07;;;;;;;126.65;71.68;;;;;;;6.06;100.00;99708.75;5015373;28;20103;-70
2023/01/22 06:44:33;;;;;;;149.10;84.90;;;;;;;5.83;100.00;99719.56;5020313;28;20025;-71
2023/01/22 06:46:58;;;;;;;120.60;71.30;;;;;;;6.15;100.00;99714.44;5030745;28;20388;-72
2023/01/22 06:49:24;;;;;;;118.97;70.40;;;;;;;6.23;100.00;99713.78;5022959;28;20049;-72
2023/01/22 06:51:49;;;;;;;123.97;71.82;;;;;;;6.38;100.00;99723.03;5026497;28;20156;-73
2023/01/22 06:54:15;;;;;;;130.32;72.30;;;;;;;6.45;100.00;99729.84;5011713;28;20026;-72
2023/01/22 06:56:40;;;;;;;107.15;59.33;;;;;;;6.57;100.00;99729.41;5023854;28;20033;-72
2023/01/22 06:59:06;;;;;;;106.18;56.60;;;;;;;6.64;100.00;99725.44;5019875;28;20021;-71
2023/01/22 07:01:31;;;;;;;107.53;59.38;;;;;;;6.71;100.00;99728.63;5028315;28;20091;-71
2023/01/22 07:03:57;;;;;;;150.98;79.63;;;;;;;6.60;100.00;99728.78;5024833;28;20033;-70
2023/01/22 07:06:22;;;;;;;118.40;64.10;;;;;;;6.66;100.00;99737.06;5008071;28;20022;-70
2023/01/22 07:08:48;;;;;;;122.95;71.95;;;;;;;6.53;100.00;99738.63;5017304;28;20025;-73
2023/01/22 07:11:14;;;;;;;101.72;55.75;;;;;;;6.50;100.00;99734.50;5027762;28;20037;-73
2023/01/22 07:13:40;;;;;;;104.28;54.08;;;;;;;6.60;100.00;99733.53;5027799;28;20060;-73
2023/01/22 07:16:06;;;;;;;83.38;47.35;;;;;;;6.78;100.00;99754.09;5028144;28;20053;-73
2023/01/22 07:18:32;;;;;;;91.78;48.63;;;;;;;6.92;100.00;99756.91;5015957;28;20259;-73
2023/01/22 07:21:02;;;;;;;161.50;83.93;;;;;;;6.96;100.00;99749.66;5012866;28;20693;-73
2023/01/22 07:23:29;;;;;;;132.98;70.80;;;;;;;7.11;100.00;99758.84;5012539;28;20057;-76
2023/01/22 07:25:55;;;;;;;103.18;56.22;;;;;;;7.15;100.00;99748.75;5021069;28;20052;-75
2023/01/22 07:28:20;;;;;;;96.32;52.55;;;;;;;7.29;100.00;99763.50;5020100;28;20484;-75
2023/01/22 07:30:46;;;;;;;91.13;48.92;;;;;;;7.22;100.00;99760.31;5020827;28;20029;-74
2023/01/22 07:33:12;;;;;;;94.43;51.47;;;;;;;6.88;100.00;99762.28;5021148;28;20160;-73
2023/01/22 07:35:38;;;;;;;96.18;50.47;;;;;;;7.29;100.00;99769.09;5027446;28;20021;-73
2023/01/22 07:38:04;;;;;;;116.93;54.13;;;;;;;7.65;100.00;99770.38;5013164;28;20160;-73
2023/01/22 07:40:30;;;;;;;97.50;48.50;;;;;;;7.56;100.00;99767.50;5023769;28;20021;-70
2023/01/22 07:42:55;;;;;;;85.35;44.83;;;;;;;7.55;100.00;99756.66;5026865;28;20034;-69
2023/01/22 07:45:23;;;;;;;94.22;43.88;;;;;;;7.66;100.00;99766.47;5034433;28;20510;-71
2023/01/22 07:47:53;;;;;;;95.90;49.10;;;;;;;7.57;100.00;99771.94;5035939;28;20037;-68
2023/01/22 07:50:20;;;;;;;;;;;;;;;7.86;100.00;99778.34;5034162;28;20029;-70
2023/01/22 07:52:45;;;;;;;94.30;46.00;;;;;;;7.91;100.00;99788.56;5021635;28;19917;-71
2023/01/22 07:55:11;;;;;;;106.32;52.13;;;;;;;8.08;100.00;99779.56;5045167;28;20037;-77
2023/01/22 07:57:36;;;;;;;102.35;52.08;;;;;;;8.24;100.00;99786.47;5038750;28;20044;-74
2023/01/22 08:00:03;;;;;;;100.78;52.38;;;;;;;8.26;100.00;99803.72;5015612;28;20029;-72
2023/01/22 08:02:28;;;;;;;97.55;52.17;;;;;;;8.43;100.00;99793.88;5029385;28;20029;-72
2023/01/22 08:04:53;;;;;;;101.50;54.00;;;;;;;8.62;100.00;99793.75;5020005;28;20084;-73
2023/01/22 08:07:19;;;;;;;106.50;52.40;;;;;;;8.74;100.00;99801.56;5021113;28;20028;-76
2023/01/22 08:09:44;;;;;;;93.43;50.42;;;;;;;8.98;100.00;99794.88;5045986;28;20092;-80
2023/01/22 08:12:10;;;;;;;100.15;53.95;;;;;;;9.25;99.98;99790.31;5039708;28;20029;-78
2023/01/22 08:14:35;;;;;;;105.93;52.97;;;;;;;9.48;99.54;99798.66;5030690;28;20033;-73
2023/01/22 08:17:01;;;;;;;88.75;48.35;;;;;;;9.30;98.81;99790.19;5034367;28;20049;-75
2023/01/22 08:19:30;;;;;;;89.65;50.95;;;;;;;9.31;99.63;99794.63;5037594;28;20064;-74
2023/01/22 08:21:55;;;;;;;85.18;42.65;;;;;;;9.10;100.00;99797.94;5023402;28;20030;-76
2023/01/22 08:24:21;;;;;;;80.57;44.90;;;;;;;8.74;100.00;99786.78;5044353;28;20033;-75
2023/01/22 08:26:46;;;;;;;82.63;42.47;;;;;;;8.48;100.00;99792.94;5048730;28;20044;-75
2023/01/22 08:29:12;;;;;;;69.90;37.70;;;;;;;8.55;100.00;99799.75;5034392;28;20041;-75
2023/01/22 08:31:38;;;;;;;64.18;33.92;;;;;;;8.47;100.00;99805.22;5040248;28;20102;-75
2023/01/22 08:34:03;;;;;;;73.88;36.28;;;;;;;8.55;100.00;99799.75;5042127;28;20029;-75
2023/01/22 08:36:29;;;;;;;70.25;36.08;;;;;;;8.63;100.00;99798.22;5038637;28;20128;-75
2023/01/22 08:38:55;;;;;;;71.57;43.42;;;;;;;8.93;100.00;99814.50;5038495;28;20030;-76
2023/01/22 08:41:21;;;;;;;67.22;37.08;;;;;;;8.84;100.00;99803.28;5043505;28;20024;-72
2023/01/22 08:43:47;;;;;;;70.97;36.58;;;;;;;8.96;100.00;99802.75;5035335;28;20025;-71
2023/01/22 08:46:12;;;;;;;69.80;38.03;;;;;;;9.08;100.00;99814.16;5039381;28;20052;-71
2023/01/22 08:48:38;;;;;;;71.78;39.08;;;;;;;9.13;100.00;99830.78;5041346;28;20040;-72
2023/01/22 08:51:04;;;;;;;114.75;37.38;;;;;;;9.19;100.00;99839.03;5032058;28;20034;-72
2023/01/22 08:53:30;;;;;;;65.97;34.58;;;;;;;9.26;100.00;99834.66;5036931;28;20029;-73
2023/01/22 08:55:55;;;;;;;63.90;35.97;;;;;;;9.25;100.00;99832.16;5027740;28;20029;-72
2023/01/22 08:58:21;;;;;;;60.85;30.83;;;;;;;9.29;100.00;99827.63;5022861;28;20033;-73
2023/01/22 09:00:47;;;;;;;60.35;30.65;;;;;;;9.20;100.00;99835.09;5017166;28;20412;-73
2023/01/22 09:03:13;;;;;;;63.83;32.85;;;;;;;9.24;100.00;99831.38;5026544;28;20116;-74
2023/01/22 09:05:39;;;;;;;57.17;32.83;;;;;;;9.41;100.00;99839.03;5016646;28;20496;-71
2023/01/22 09:08:05;;;;;;;65.50;33.40;;;;;;;9.45;100.00;99825.25;5027194;28;20061;-71
2023/01/22 09:10:30;;;;;;;61.22;34.72;;;;;;;9.66;100.00;99825.56;5029799;28;20455;-73
2023/01/22 09:12:59;;;;;;;62.95;33.38;;;;;;;9.75;100.00;99827.53;5022496;28;20091;-74
2023/01/22 09:15:25;;;;;;;59.85;30.42;;;;;;;9.95;100.00;99821.41;5019343;28;20036;-73
2023/01/22 09:17:51;;;;;;;63.55;32.05;;;;;;;9.92;100.00;99815.63;5024986;28;20504;-72
2023/01/22 09:20:16;;;;;;;60.80;31.05;;;;;;;9.80;100.00;99819.03;5030065;28;20030;-71
2023/01/22 09:22:46;;;;;;;69.57;33.50;;;;;;;9.67;100.00;99823.56;5029054;28;20041;-73
2023/01/22 09:25:12;;;;;;;67.07;30.95;;;;;;;9.58;100.00;99820.72;5025098;28;20051;-71
2023/01/22 09:27:37;;;;;;;63.85;29.98;;;;;;;9.75;100.00;99822.78;5027919;28;20044;-71
2023/01/22 09:30:04;;;;;;;54.60;29.52;;;;;;;9.80;100.00;99821.84;5013188;28;20026;-70
2023/01/22 09:32:29;;;;;;;60.30;29.80;;;;;;;9.98;100.00;99812.38;5026814;28;20029;-72
2023/01/22 09:34:55;;;;;;;50.92;24.58;;;;;;;10.03;100.00;99822.59;5021742;28;20108;-71
2023/01/22 09:37:21;;;;;;;53.05;24.50;;;;;;;9.89;100.00;99814.28;5020381;28;20033;-72
2023/01/22 09:39:50;;;;;;;50.53;25.20;;;;;;;9.97;100.00;99810.72;5027854;28;20067;-74
2023/01/22 09:42:27;;;;;;;43.78;25.88;;;;;;;10.17;98.91;99811.28;5024787;28;20021;-74
2023/01/22 09:44:59;;;;;;;52.13;24.55;;;;;;;10.37;97.99;99820.22;5028700;28;20036;-76
2023/01/22 09:47:34;;;;;;;47.78;24.52;;;;;;;10.46;96.48;99807.13;5021433;28;20427;-71
2023/01/22 09:50:03;;;;;;;52.88;26.38;;;;;;;10.55;94.53;99811.91;5022831;28;20026;-70
2023/01/22 09:52:32;;;;;;;50.47;27.92;;;;;;;10.40;96.90;99805.59;5028931;28;20036;-71
2023/01/22 09:54:58;;;;;;;49.50;26.60;;;;;;;10.29;97.17;99799.47;5025811;28;20030;-69
2023/01/22 09:57:23;;;;;;;59.85;28.13;;;;;;;10.19;98.36;99797.81;5016350;28;20037;-69
2023/01/22 09:59:52;;;;;;;51.95;28.25;;;;;;;10.23;97.60;99804.38;5018056;28;20029;-69
2023/01/22 10:02:28;;;;;;;60.33;29.88;;;;;;;10.08;98.17;99796.47;5027672;28;20033;-69
2023/01/22 10:05:04;;;;;;;63.90;30.80;;;;;;;10.04;100.00;99796.28;5019619;28;20084;-71
2023/01/22 10:07:42;;;;;;;79.57;35.67;;;;;;;9.92;100.00;99791.31;5018576;28;20034;-69
2023/01/22 10:10:25;;;;;;;64.63;31.70;;;;;;;9.97;100.00;99796.75;5023042;28;20514;-69
2023/01/22 10:13:19;;;;;;;55.88;27.75;;;;;;;10.01;99.71;99796.09;5029085;28;20029;-70
2023/01/22 10:15:46;;;;;;;55.80;26.52;;;;;;;10.13;99.17;99798.28;5024193;28;20501;-69
2023/01/22 10:18:23;;;;;;;53.33;27.25;;;;;;;10.27;99.22;99798.19;5023964;28;20104;-70
2023/01/22 10:20:49;;;;;;;59.80;30.58;;;;;;;10.41;98.90;99798.88;5029135;28;20136;-71
2023/01/22 10:23:17;;;;;;;55.67;29.27;;;;;;;10.43;97.33;99795.75;5027619;28;20080;-71
2023/01/22 10:25:43;;;;;;;60.53;30.88;;;;;;;10.46;98.65;99795.94;5014017;28;20424;-72
2023/01/22 10:28:10;;;;;;;54.22;27.77;;;;;;;10.53;99.15;99793.47;5009229;28;20029;-72
2023/01/22 10:30:47;;;;;;;85.28;42.95;;;;;;;10.58;98.46;99791.66;5009047;28;20029;-72
2023/01/22 10:33:21;;;;;;;72.00;30.83;;;;;;;10.78;97.71;99799.44;5012113;28;20028;-73
2023/01/22 10:35:49;;;;;;;33.90;16.77;;;;;;;10.70;94.83;99796.63;5018899;28;20038;-68
2023/01/22 10:38:24;;;;;;;31.58;17.35;;;;;;;10.60;94.75;99806.13;5008960;28;20530;-68
2023/01/22 10:40:58;;;;;;;33.42;17.13;;;;;;;10.57;94.21;99801.22;5009034;28;20025;-68
2023/01/22 10:43:35;;;;;;;37.22;17.58;;;;;;;10.42;96.71;99797.75;5008887;28;20033;-68
2023/01/22 10:46:31;;;;;;;32.67;16.98;;;;;;;10.41;95.09;99787.72;5020789;28;20039;-69
2023/01/22 10:49:07;;;;;;;24.63;14.75;;;;;;;10.53;95.48;99799.06;5016900;28;20593;-70
2023/01/22 10:51:38;;;;;;;35.15;17.15;;;;;;;10.50;94.99;99794.16;5015676;28;20029;-69
2023/01/22 10:54:23;;;;;;;30.88;16.60;;;;;;;10.56;94.01;99799.56;5016525;28;20021;-69
2023/01/22 10:56:49;;;;;;;33.92;14.68;;;;;;;10.57;92.64;99796.44;5012663;28;20095;-69
2023/01/22 10:59:21;;;;;;;29.20;13.00;;;;;;;10.70;92.05;99796.63;5009230;28;20037;-70
2023/01/22 11:01:48;;;;;;;24.13;13.43;;;;;;;10.71;91.65;99803.88;5008769;28;20496;-68
2023/01/22 11:04:22;;;;;;;20.52;11.63;;;;;;;10.68;91.96;99796.94;5011088;28;20129;-72
2023/01/22 11:07:07;;;;;;;18.38;9.85;;;;;;;10.75;91.80;99794.50;5018003;28;20032;-70
2023/01/22 11:09:45;;;;;;;20.58;10.93;;;;;;;10.62;92.66;99799.06;5018777;28;20037;-69
2023/01/22 11:12:19;;;;;;;19.88;10.82;;;;;;;10.55;94.29;99807.13;5013686;28;20072;-69
2023/01/22 11:14:54;;;;;;;18.55;9.40;;;;;;;10.38;93.69;99791.13;5026248;28;20068;-71
2023/01/22 11:17:32;;;;;;;17.75;10.35;;;;;;;10.49;91.80;99795.25;5026410;28;20049;-70
2023/01/22 11:20:10;;;;;;;72.13;30.45;;;;;;;10.46;91.19;99800.72;5010002;28;20483;-71
2023/01/22 11:22:39;;;;;;;18.65;10.07;;;;;;;10.60;89.77;99798.59;5020491;28;20091;-70
2023/01/22 11:25:09;;;;;;;18.17;10.50;;;;;;;10.76;88.50;99804.53;5030811;28;20025;-71